Time;durP1;ratioP1;P1;durP2;ratioP2;P2;SDS_P1;SDS_P2;PMS_P1;PMS_P2;Temp;Humidity;BMP_temperature;BMP_pressure;BME280_temperature;BME280_humidity;BME280_pressure;Samples;Min_cycle;Max_cycle;Signal;HPM_P1;HPM_P2
2023/06/12 00:01:36;;;;;;;5.00;3.20;;;;;;;17.01;59.94;99338.65;223701;182;145910;-69
2023/06/12 00:06:40;;;;;;;5.60;3.50;;;;;;;16.97;60.11;99337.55;223673;183;138403;-67
2023/06/12 00:11:47;;;;;;;5.40;3.20;;;;;;;16.94;60.16;99333.00;223762;181;136376;-65
2023/06/12 00:16:51;;;;;;;5.40;3.70;;;;;;;16.89;60.25;99330.36;223753;181;145382;-68
2023/06/12 00:21:54;;;;;;;4.90;3.20;;;;;;;16.85;60.38;99332.30;223751;182;138265;-68
2023/06/12 00:26:57;;;;;;;5.00;3.40;;;;;;;16.81;60.43;99327.48;223827;181;136291;-65
2023/06/12 00:32:01;;;;;;;6.80;3.60;;;;;;;16.76;60.70;99321.73;223737;181;145066;-65
2023/06/12 00:37:05;;;;;;;6.10;3.80;;;;;;;16.72;60.67;99319.41;223796;182;138329;-65
2023/06/12 00:42:08;;;;;;;4.50;3.30;;;;;;;16.67;61.02;99319.30;223802;182;136257;-67
2023/06/12 00:47:14;;;;;;;4.60;3.20;;;;;;;16.61;61.05;99322.05;223763;182;145055;-68
2023/06/12 00:52:18;;;;;;;4.90;3.40;;;;;;;16.55;61.26;99326.48;223727;181;138188;-65
2023/06/12 00:57:22;;;;;;;7.70;3.10;;;;;;;16.49;61.33;99326.13;223736;181;136726;-69
2023/06/12 01:02:26;;;;;;;4.10;3.20;;;;;;;16.43;61.55;99321.95;223721;181;145765;-68
2023/06/12 01:07:43;;;;;;;8.10;3.30;;;;;;;16.39;61.69;99319.80;223757;181;138666;-64
2023/06/12 01:12:48;;;;;;;4.80;3.60;;;;;;;16.33;61.81;99321.13;223751;182;136908;-66
2023/06/12 01:17:51;;;;;;;7.50;3.50;;;;;;;16.29;61.90;99322.17;223822;182;148098;-67
2023/06/12 01:23:15;;;;;;;6.50;3.40;;;;;;;16.26;62.09;99318.10;223823;181;139086;-70
2023/06/12 01:28:21;;;;;;;4.90;3.30;;;;;;;16.23;62.10;99321.41;223878;182;136423;-69
2023/06/12 01:33:30;;;;;;;5.30;3.50;;;;;;;16.20;62.19;99327.55;223729;181;145356;-65
2023/06/12 01:38:35;;;;;;;5.60;3.30;;;;;;;16.15;62.27;99328.54;223730;181;138822;-70
2023/06/12 01:43:39;;;;;;;4.50;3.10;;;;;;;16.11;62.48;99328.33;223744;181;137019;-63
2023/06/12 01:48:42;;;;;;;4.70;3.20;;;;;;;16.09;62.60;99332.77;223732;181;145768;-63
2023/06/12 01:53:47;;;;;;;4.50;3.10;;;;;;;16.12;62.51;99336.06;223744;181;138271;-66
2023/06/12 01:58:50;;;;;;;4.80;3.10;;;;;;;16.15;62.42;99340.51;223766;181;137215;-67
2023/06/12 02:04:23;;;;;;;5.40;3.50;;;;;;;16.16;62.31;99334.84;223816;181;147461;-67
2023/06/12 02:09:29;;;;;;;6.10;3.30;;;;;;;16.13;62.28;99337.48;223729;181;138408;-66
2023/06/12 02:14:33;;;;;;;5.90;3.60;;;;;;;16.05;62.41;99340.24;223840;181;137101;-65
2023/06/12 02:19:36;;;;;;;7.20;3.50;;;;;;;15.97;62.58;99340.34;223647;181;144998;-67
2023/06/12 02:24:41;;;;;;;4.80;3.70;;;;;;;15.89;62.66;99340.48;223774;181;138456;-65
2023/06/12 02:29:47;;;;;;;5.90;3.40;;;;;;;15.81;62.78;99347.48;223801;181;136872;-62
2023/06/12 02:34:50;;;;;;;4.90;3.90;;;;;;;15.74;63.01;99352.50;223696;181;147634;-62
2023/06/12 02:39:54;;;;;;;5.60;3.30;;;;;;;15.68;63.09;99360.16;223759;182;138846;-65
2023/06/12 02:44:58;;;;;;;5.70;3.60;;;;;;;15.60;63.26;99366.98;223877;181;140589;-66
2023/06/12 02:50:02;;;;;;;7.40;3.90;;;;;;;15.54;63.38;99374.07;223580;182;145129;-63
2023/06/12 02:55:13;;;;;;;266.50;215.00;;;;;;;15.50;63.80;99373.48;223750;182;138346;-64
2023/06/12 03:00:17;;;;;;;28.30;24.40;;;;;;;15.50;63.84;99373.17;223696;181;138395;-69
2023/06/12 03:05:25;;;;;;;48.20;38.20;;;;;;;15.45;63.96;99374.23;223774;181;145310;-64
2023/06/12 03:10:31;;;;;;;8.60;5.20;;;;;;;15.61;66.65;99375.37;223776;182;138870;-66
2023/06/12 03:15:35;;;;;;;20.80;16.20;;;;;;;16.69;66.49;99372.81;223910;178;137157;-64
2023/06/12 03:20:39;;;;;;;24.90;17.70;;;;;;;17.50;63.62;99377.24;223769;181;145916;-61
2023/06/12 03:25:43;;;;;;;15.00;11.30;;;;;;;17.97;61.31;99386.45;223726;181;138860;-64
2023/06/12 03:30:46;;;;;;;9.90;8.10;;;;;;;18.21;59.45;99383.25;223851;181;136891;-67
2023/06/12 03:35:50;;;;;;;7.70;4.90;;;;;;;18.33;58.69;99382.55;223801;181;146980;-63
2023/06/12 03:40:53;;;;;;;24.20;16.80;;;;;;;18.21;57.32;99377.16;223749;181;138461;-63
2023/06/12 03:50:45;;;;;;;8.50;3.50;;;;;;;17.77;57.70;99375.24;221792;192;666948;-62
2023/06/12 03:55:49;;;;;;;4.80;3.50;;;;;;;17.24;58.11;99382.66;223548;185;136311;-63
2023/06/12 04:00:52;;;;;;;5.70;3.40;;;;;;;16.89;59.07;99390.02;223490;185;143691;-64
2023/06/12 04:05:56;;;;;;;5.40;4.40;;;;;;;16.68;59.74;99392.61;223538;185;138317;-64
2023/06/12 04:11:01;;;;;;;145.80;114.40;;;;;;;16.54;60.16;99395.74;223842;182;136101;-65
2023/06/12 04:50:47;;;;;;;4.90;3.40;;;;;;;16.30;59.27;99398.02;221987;193;665881;-68
2023/06/12 04:55:51;;;;;;;7.00;3.20;;;;;;;16.30;59.35;99401.20;223858;181;136399;-65
2023/06/12 05:00:55;;;;;;;5.10;3.00;;;;;;;16.35;59.03;99410.33;223920;181;145055;-66
2023/06/12 05:06:00;;;;;;;5.30;2.80;;;;;;;16.40;58.84;99409.77;223805;181;138856;-66
2023/06/12 05:11:05;;;;;;;5.40;3.00;;;;;;;16.39;58.52;99410.58;223822;181;136455;-65
2023/06/12 05:16:09;;;;;;;4.90;2.80;;;;;;;16.40;58.72;99408.52;223758;181;143571;-66
2023/06/12 05:21:14;;;;;;;7.10;2.60;;;;;;;16.48;58.65;99405.50;223782;182;138380;-62
2023/06/12 05:26:18;;;;;;;4.10;2.90;;;;;;;16.58;58.21;99408.09;223867;181;136493;-66
2023/06/12 05:31:22;;;;;;;4.40;2.70;;;;;;;16.65;57.67;99413.15;223685;178;144196;-70
2023/06/12 05:36:27;;;;;;;4.50;3.00;;;;;;;16.73;57.49;99407.45;223830;181;138829;-67
2023/06/12 05:41:31;;;;;;;3.60;2.70;;;;;;;16.81;57.04;99399.70;223805;181;137727;-67
2023/06/12 05:46:34;;;;;;;3.40;2.60;;;;;;;16.89;56.55;99408.15;223764;182;230283;-69
2023/06/12 05:51:38;;;;;;;5.70;2.40;;;;;;;16.94;55.30;99407.02;223749;182;139409;-65
2023/06/12 05:56:46;;;;;;;5.80;3.00;;;;;;;16.96;55.03;99412.23;223760;182;137069;-65
2023/06/12 06:01:55;;;;;;;6.70;2.20;;;;;;;16.99;54.59;99416.27;223777;182;145146;-64
2023/06/12 06:07:00;;;;;;;6.90;2.50;;;;;;;17.03;53.26;99417.38;223702;182;142448;-63
2023/06/12 06:12:20;;;;;;;4.40;2.30;;;;;;;17.12;52.68;99421.51;223740;182;137567;-65
2023/06/12 06:17:23;;;;;;;6.50;2.30;;;;;;;17.22;52.09;99422.96;223850;182;146021;-65
2023/06/12 06:22:27;;;;;;;4.30;2.20;;;;;;;17.28;52.19;99420.72;223775;182;138648;-66
2023/06/12 06:27:30;;;;;;;5.20;2.30;;;;;;;17.40;51.79;99425.64;223784;181;136413;-68
2023/06/12 06:32:34;;;;;;;3.10;2.20;;;;;;;17.47;50.87;99421.93;223862;181;145945;-65
2023/06/12 06:37:37;;;;;;;4.60;2.10;;;;;;;17.50;50.43;99424.95;223760;181;141361;-64
2023/06/12 06:42:41;;;;;;;5.30;2.00;;;;;;;17.53;50.47;99422.71;223681;181;137166;-63
2023/06/12 06:47:47;;;;;;;3.90;2.40;;;;;;;17.57;50.28;99423.27;223707;181;145557;-63
2023/06/12 06:52:50;;;;;;;4.00;2.30;;;;;;;17.64;49.84;99424.63;223722;181;138426;-63
2023/06/12 06:57:54;;;;;;;4.00;2.00;;;;;;;17.69;49.93;99427.39;223747;182;139035;-67
2023/06/12 07:02:58;;;;;;;5.10;2.00;;;;;;;17.76;49.48;99432.77;223620;181;146113;-67
2023/06/12 07:08:02;;;;;;;6.60;2.40;;;;;;;17.85;49.13;99430.45;223576;182;139447;-66
2023/06/12 07:13:08;;;;;;;6.10;2.30;;;;;;;17.91;48.57;99433.52;223794;181;136693;-65
2023/06/12 07:18:17;;;;;;;6.00;2.20;;;;;;;17.95;48.78;99431.33;223784;181;145323;-67
2023/06/12 07:23:21;;;;;;;5.00;2.20;;;;;;;18.05;48.66;99431.95;223779;182;138707;-71
2023/06/12 07:28:25;;;;;;;9.70;2.30;;;;;;;18.14;47.94;99430.95;223791;181;136605;-69
2023/06/12 07:33:28;;;;;;;5.50;1.70;;;;;;;18.16;47.11;99431.96;223831;182;145409;-64
2023/06/12 07:38:31;;;;;;;7.40;2.10;;;;;;;18.18;46.67;99429.14;223710;182;138404;-64
2023/06/12 07:43:35;;;;;;;6.00;2.10;;;;;;;18.16;46.65;99430.00;222890;181;138292;-70
2023/06/12 07:48:38;;;;;;;4.50;2.60;;;;;;;18.25;46.16;99428.43;223679;181;146081;-64
2023/06/12 07:53:43;;;;;;;9.30;2.80;;;;;;;18.30;46.04;99432.29;223741;182;138762;-63
2023/06/12 07:58:50;;;;;;;7.10;2.10;;;;;;;18.35;46.57;99424.09;223798;182;137081;-69
2023/06/12 08:03:56;;;;;;;10.60;2.30;;;;;;;18.45;46.33;99429.34;223758;182;145071;-68
2023/06/12 08:09:00;;;;;;;6.50;2.50;;;;;;;18.51;46.32;99425.89;223812;182;138456;-66
2023/06/12 08:14:04;;;;;;;2.50;1.90;;;;;;;18.53;45.81;99425.52;223775;182;136681;-66
2023/06/12 08:19:10;;;;;;;4.20;2.10;;;;;;;18.55;46.14;99424.83;223657;181;145341;-68
2023/06/12 08:24:14;;;;;;;8.50;2.40;;;;;;;18.59;45.59;99426.94;223735;181;139827;-63
2023/06/12 08:29:18;;;;;;;2.70;2.00;;;;;;;18.69;44.78;99423.45;223806;181;136718;-66
2023/06/12 08:34:24;;;;;;;3.00;1.90;;;;;;;18.83;45.24;99413.41;223777;182;145431;-66
2023/06/12 08:39:29;;;;;;;3.70;1.90;;;;;;;18.96;43.62;99417.36;223756;182;138432;-70
2023/06/12 08:44:34;;;;;;;6.40;2.30;;;;;;;19.05;42.88;99416.06;223817;182;136815;-69
2023/06/12 08:49:37;;;;;;;6.30;1.90;;;;;;;19.12;43.22;99418.48;223804;181;145633;-71
2023/06/12 08:54:44;;;;;;;7.50;2.00;;;;;;;19.24;43.37;99419.00;222257;182;140105;-71
2023/06/12 08:59:48;;;;;;;2.50;1.80;;;;;;;19.39;43.53;99413.65;221183;182;139045;-68
2023/06/12 09:05:07;;;;;;;4.40;1.80;;;;;;;19.46;42.91;99409.91;221248;181;146533;-67
2023/06/12 09:10:15;;;;;;;7.40;2.90;;;;;;;19.47;42.15;99406.05;221111;182;138763;-70
2023/06/12 09:15:20;;;;;;;7.50;1.90;;;;;;;19.61;41.78;99399.76;221162;182;141030;-66
2023/06/12 09:20:27;;;;;;;;;;;;;;;19.76;41.10;99406.63;221153;182;145965;-67
2023/06/12 09:25:40;;;;;;;9.20;1.80;;;;;;;19.86;40.12;99408.71;221074;182;139161;-69
2023/06/12 09:30:52;;;;;;;1.90;1.60;;;;;;;19.77;40.52;99408.27;221157;182;137675;-69
2023/06/12 09:36:00;;;;;;;4.30;1.90;;;;;;;19.80;40.68;99404.94;221116;182;146256;-69
2023/06/12 09:41:08;;;;;;;5.00;1.70;;;;;;;19.94;40.36;99396.98;221047;181;139819;-66
2023/06/12 09:46:12;;;;;;;31.40;22.50;;;;;;;20.12;38.99;99388.21;221140;181;137000;-68
2023/06/12 09:51:17;;;;;;;13.40;8.30;;;;;;;20.22;39.48;99385.98;220991;181;146161;-65
2023/06/12 09:56:23;;;;;;;5.70;2.80;;;;;;;20.45;41.84;99381.64;221052;182;139238;-66
2023/06/12 10:01:28;;;;;;;3.20;2.30;;;;;;;20.64;40.81;99382.09;221147;181;136602;-67
2023/06/12 10:06:33;;;;;;;;;;;;;;;20.64;40.47;99378.74;221089;183;145941;-66
2023/06/12 10:11:38;;;;;;;4.50;2.00;;;;;;;20.70;40.44;99369.83;221136;181;139248;-67
2023/06/12 10:16:47;;;;;;;5.70;1.90;;;;;;;20.96;40.58;99369.73;221204;182;137702;-66
2023/06/12 10:21:54;;;;;;;3.90;1.90;;;;;;;21.19;39.55;99361.48;221101;182;146315;-64
2023/06/12 10:27:00;;;;;;;6.90;4.70;;;;;;;21.22;38.69;99362.65;220965;181;139563;-65
2023/06/12 10:32:07;;;;;;;9.50;5.00;;;;;;;21.32;37.84;99359.40;221256;182;137150;-64
2023/06/12 10:37:37;;;;;;;8.30;2.60;;;;;;;21.43;36.96;99354.73;221167;182;146110;-63
2023/06/12 10:42:51;;;;;;;5.00;2.70;;;;;;;21.55;37.31;99353.14;221139;181;139221;-67
2023/06/12 10:48:06;;;;;;;;;;;;;;;21.75;37.37;99346.75;221175;181;137460;-66
2023/06/12 10:53:29;;;;;;;2.70;1.60;;;;;;;21.87;36.42;99343.48;221326;181;146868;-66
2023/06/12 10:58:38;;;;;;;10.60;1.90;;;;;;;21.68;35.43;99343.68;221057;182;138498;-67
2023/06/12 11:03:44;;;;;;;4.70;1.60;;;;;;;21.48;35.94;99338.27;220999;181;136867;-67
2023/06/12 11:08:48;;;;;;;8.60;1.70;;;;;;;21.33;35.85;99334.11;220981;182;145757;-68
2023/06/12 11:13:52;;;;;;;4.50;1.70;;;;;;;21.38;35.23;99310.14;220917;182;139499;-66
2023/06/12 11:19:05;;;;;;;4.20;1.70;;;;;;;21.32;34.72;99310.32;220911;183;140438;-69
2023/06/12 11:24:13;;;;;;;5.10;1.70;;;;;;;21.48;34.45;99310.73;221143;181;145778;-68
2023/06/12 11:29:22;;;;;;;4.30;1.60;;;;;;;21.75;33.76;99306.48;221082;182;139823;-67
2023/06/12 11:34:36;;;;;;;6.10;1.50;;;;;;;22.10;33.56;99291.23;221098;182;136834;-67
2023/06/12 11:39:43;;;;;;;5.80;1.30;;;;;;;22.50;32.71;99287.02;221115;181;146658;-67
2023/06/12 11:44:51;;;;;;;1.90;1.70;;;;;;;22.76;32.45;99274.04;221247;181;139737;-66
2023/06/12 11:49:54;;;;;;;4.30;1.50;;;;;;;22.95;32.35;99275.34;221085;182;137938;-70
2023/06/12 11:55:09;;;;;;;4.10;1.70;;;;;;;22.89;32.20;99268.95;221218;181;147062;-69
2023/06/12 12:00:20;;;;;;;6.80;1.40;;;;;;;22.52;31.93;99277.49;221144;181;139343;-65
2023/06/12 12:05:24;;;;;;;3.20;1.40;;;;;;;22.50;32.11;99266.57;221137;182;137326;-65
2023/06/12 12:10:32;;;;;;;5.30;1.60;;;;;;;22.41;32.06;99265.33;221096;182;146527;-69
2023/06/12 12:15:40;;;;;;;5.40;1.80;;;;;;;22.25;32.46;99264.02;221040;182;139664;-68
2023/06/12 12:20:49;;;;;;;4.40;1.70;;;;;;;22.44;32.53;99261.20;221062;182;137699;-67
2023/06/12 12:25:53;;;;;;;4.90;1.60;;;;;;;22.90;31.70;99256.73;221115;181;146087;-69
2023/06/12 12:30:58;;;;;;;5.10;1.40;;;;;;;23.39;30.62;99257.08;221120;181;140606;-70
2023/06/12 12:36:02;;;;;;;3.90;1.70;;;;;;;23.85;30.48;99245.81;223778;182;136358;-70
2023/06/12 12:41:06;;;;;;;3.00;1.40;;;;;;;23.99;29.50;99239.99;223557;182;146109;-69
2023/06/12 12:50:53;;;;;;;8.10;2.10;;;;;;;24.04;29.04;99237.02;219497;193;678780;-69
2023/06/12 12:56:15;;;;;;;4.50;1.50;;;;;;;23.87;29.25;99237.23;220880;185;136220;-71
2023/06/12 13:01:19;;;;;;;7.00;1.70;;;;;;;24.16;29.18;99228.27;221025;179;144898;-70
2023/06/12 13:06:24;;;;;;;4.50;1.80;;;;;;;24.37;29.08;99221.86;220923;183;138864;-69
2023/06/12 13:11:28;;;;;;;3.60;1.60;;;;;;;24.55;28.63;99223.17;221047;182;136869;-73
2023/06/12 13:16:33;;;;;;;3.60;1.50;;;;;;;24.46;28.78;99221.52;221095;183;144500;-68
2023/06/12 13:21:39;;;;;;;3.70;1.50;;;;;;;24.05;29.51;99212.98;220985;183;139634;-70
2023/06/12 13:26:48;;;;;;;2.90;1.40;;;;;;;23.91;29.77;99217.20;221051;182;136603;-68
2023/06/12 13:31:58;;;;;;;2.70;1.50;;;;;;;23.68;29.59;99224.91;220856;182;146199;-69
2023/06/12 13:37:03;;;;;;;4.10;1.70;;;;;;;23.43;29.75;99215.41;220984;183;141000;-64
2023/06/12 13:42:07;;;;;;;5.30;1.70;;;;;;;23.83;30.33;99207.21;220945;182;136522;-70
2023/06/12 13:47:11;;;;;;;2.50;1.40;;;;;;;23.97;29.72;99209.00;220854;183;145521;-70
2023/06/12 13:52:15;;;;;;;7.30;1.60;;;;;;;23.49;29.88;99209.61;220886;184;139353;-68
2023/06/12 13:57:18;;;;;;;2.30;1.40;;;;;;;23.13;30.66;99216.07;221120;182;136886;-68
2023/06/12 14:02:23;;;;;;;6.80;1.60;;;;;;;22.85;31.24;99217.11;220982;183;146266;-65
2023/06/12 14:07:26;;;;;;;5.90;1.50;;;;;;;22.75;31.31;99217.14;221009;182;138603;-68
2023/06/12 14:12:33;;;;;;;4.40;1.70;;;;;;;22.74;31.33;99215.64;221046;182;136976;-66
2023/06/12 14:17:38;;;;;;;34.10;24.50;;;;;;;23.00;31.06;99211.02;220989;182;145672;-71
2023/06/12 14:22:45;;;;;;;6.20;3.50;;;;;;;23.16;31.14;99203.95;221072;182;138949;-71
2023/06/12 14:27:50;;;;;;;5.70;2.10;;;;;;;22.96;31.07;99215.79;221133;182;139236;-68
2023/06/12 14:32:55;;;;;;;3.10;1.70;;;;;;;22.73;31.74;99218.61;223607;182;146365;-65
2023/06/12 14:37:59;;;;;;;4.40;1.90;;;;;;;22.77;32.43;99208.92;223639;181;138586;-65
2023/06/12 14:43:02;;;;;;;4.80;1.70;;;;;;;22.86;32.70;99204.47;223665;181;136884;-69
2023/06/12 14:50:45;;;;;;;5.20;1.70;;;;;;;22.75;33.08;99201.18;219487;193;665137;-67
2023/06/12 14:55:53;;;;;;;5.30;2.00;;;;;;;22.49;33.17;99201.84;220967;184;139639;-64
2023/06/12 15:00:58;;;;;;;5.80;2.20;;;;;;;22.34;33.48;99207.55;220998;183;144526;-67
2023/06/12 15:06:03;;;;;;;4.60;2.20;;;;;;;22.22;33.89;99200.16;221034;181;139146;-67
2023/06/12 15:11:07;;;;;;;5.90;1.90;;;;;;;22.01;34.07;99206.64;221143;181;137314;-65
2023/06/12 15:16:11;;;;;;;4.20;2.10;;;;;;;21.87;34.71;99204.15;221234;181;144355;-66
2023/06/12 15:21:18;;;;;;;5.60;1.80;;;;;;;21.77;35.03;99199.48;221210;181;139880;-66
2023/06/12 15:26:22;;;;;;;4.50;1.70;;;;;;;21.71;35.27;99187.86;221171;182;136107;-67
2023/06/12 15:31:26;;;;;;;5.80;1.90;;;;;;;21.79;35.55;99184.30;221165;181;143521;-68
2023/06/12 15:36:30;;;;;;;5.80;2.00;;;;;;;21.81;35.50;99178.32;221120;181;139181;-67
2023/06/12 15:41:34;;;;;;;9.40;2.30;;;;;;;21.65;34.87;99176.23;221190;181;137370;-66
2023/06/12 15:46:38;;;;;;;3.00;1.80;;;;;;;21.48;34.93;99176.08;221007;182;145757;-66
2023/06/12 15:51:44;;;;;;;2.60;2.20;;;;;;;21.38;35.26;99186.61;221106;179;139245;-64
2023/06/12 15:56:48;;;;;;;4.40;1.80;;;;;;;21.29;35.34;99188.08;221215;182;140184;-65
2023/06/12 16:01:58;;;;;;;5.60;2.10;;;;;;;21.22;35.30;99187.00;221145;182;146506;-66
2023/06/12 16:07:02;;;;;;;5.40;2.10;;;;;;;21.20;35.35;99182.16;221146;182;140983;-68
2023/06/12 16:12:06;;;;;;;21.50;14.10;;;;;;;21.23;35.82;99177.73;221083;182;137100;-68
2023/06/12 16:17:11;;;;;;;19.00;15.30;;;;;;;21.28;36.11;99174.83;221050;181;146447;-68
2023/06/12 16:22:16;;;;;;;5.00;2.50;;;;;;;21.32;35.38;99176.80;221042;182;139671;-68
2023/06/12 16:27:20;;;;;;;4.20;1.90;;;;;;;21.22;35.94;99180.85;221037;182;137112;-66
2023/06/12 16:32:25;;;;;;;6.10;2.20;;;;;;;21.18;36.25;99180.95;221090;179;146701;-69
2023/06/12 16:37:29;;;;;;;5.40;2.40;;;;;;;21.08;36.26;99180.55;221055;182;139842;-69
2023/06/12 16:42:34;;;;;;;5.70;2.30;;;;;;;20.99;36.39;99182.15;221103;182;137064;-68
2023/06/12 16:47:38;;;;;;;7.10;2.00;;;;;;;20.91;36.79;99184.84;220997;182;146100;-68
2023/06/12 16:52:43;;;;;;;3.60;2.40;;;;;;;20.87;37.02;99188.30;221214;181;139401;-65
2023/06/12 16:57:47;;;;;;;6.10;2.10;;;;;;;20.84;37.32;99188.45;221117;180;137203;-65
2023/06/12 17:02:51;;;;;;;5.10;3.20;;;;;;;20.83;37.68;99191.05;221065;182;146112;-68
2023/06/12 17:07:56;;;;;;;6.50;2.50;;;;;;;20.85;38.07;99196.47;220982;182;138891;-69
2023/06/12 17:13:00;;;;;;;34.20;26.10;;;;;;;20.80;37.43;99201.80;221087;182;136934;-68
2023/06/12 17:18:05;;;;;;;7.10;3.90;;;;;;;20.68;37.80;99196.67;220929;182;146133;-69
2023/06/12 17:23:12;;;;;;;5.20;2.40;;;;;;;20.73;38.39;99197.46;221185;181;139346;-66
2023/06/12 17:28:16;;;;;;;3.80;1.90;;;;;;;20.72;38.20;99200.46;221074;182;137440;-67
2023/06/12 17:33:20;;;;;;;5.70;1.90;;;;;;;20.55;37.98;99202.86;221036;182;145735;-66
2023/06/12 17:38:24;;;;;;;18.10;14.10;;;;;;;20.40;38.33;99199.89;223628;181;138729;-66
2023/06/12 17:43:29;;;;;;;8.00;2.80;;;;;;;20.30;39.59;99199.23;223674;181;137576;-66
2023/06/12 17:50:44;;;;;;;4.90;2.40;;;;;;;20.23;39.74;99195.29;219487;225;665604;-68
2023/06/12 17:55:56;;;;;;;4.90;2.50;;;;;;;20.15;40.06;99202.54;220910;182;137674;-66
2023/06/12 18:01:00;;;;;;;307.50;244.70;;;;;;;20.01;39.64;99207.02;220979;183;143926;-66
2023/06/12 18:06:04;;;;;;;18.00;8.90;;;;;;;19.82;39.16;99202.70;221010;183;139256;-67
2023/06/12 18:11:07;;;;;;;7.30;3.00;;;;;;;19.67;39.13;99203.31;221098;182;136773;-67
2023/06/12 18:16:11;;;;;;;5.60;1.90;;;;;;;19.52;39.14;99203.31;221106;182;144953;-66
2023/06/12 18:21:15;;;;;;;6.20;2.80;;;;;;;19.36;39.48;99203.94;220992;182;138510;-66
2023/06/12 18:26:19;;;;;;;5.90;2.70;;;;;;;19.25;39.94;99204.09;221153;182;138911;-67
2023/06/12 18:31:23;;;;;;;3.70;1.80;;;;;;;19.11;40.19;99204.52;223711;182;143342;-67
2023/06/12 18:36:27;;;;;;;12.00;8.90;;;;;;;18.98;40.18;99208.27;223713;182;138320;-66
2023/06/12 18:41:32;;;;;;;8.40;5.90;;;;;;;18.88;40.57;99213.14;223680;182;136607;-65
2023/06/12 18:50:46;;;;;;;7.40;2.00;;;;;;;18.75;40.53;99212.94;219674;193;666617;-65
2023/06/12 18:55:50;;;;;;;5.10;1.70;;;;;;;18.59;40.56;99211.51;220954;185;140218;-65
2023/06/12 19:00:54;;;;;;;4.10;1.90;;;;;;;18.48;41.20;99214.02;220942;185;144368;-65
2023/06/12 19:05:59;;;;;;;4.00;2.10;;;;;;;18.35;41.32;99216.94;220853;184;139284;-66
2023/06/12 19:11:08;;;;;;;5.80;1.90;;;;;;;18.24;41.79;99223.88;221062;183;139626;-66
2023/06/12 19:16:11;;;;;;;6.00;2.30;;;;;;;18.13;42.18;99231.64;221086;179;144205;-64
2023/06/12 19:21:16;;;;;;;4.60;2.00;;;;;;;18.01;42.54;99235.11;221036;183;139343;-64
2023/06/12 19:26:22;;;;;;;6.40;2.20;;;;;;;17.91;42.97;99236.59;221978;182;136185;-63
2023/06/12 19:31:25;;;;;;;3.30;2.40;;;;;;;17.79;43.30;99243.68;223607;182;144012;-65
2023/06/12 19:36:29;;;;;;;6.80;2.10;;;;;;;17.68;43.71;99245.56;223728;182;138465;-67
2023/06/12 19:41:32;;;;;;;7.40;2.60;;;;;;;17.59;44.03;99248.01;223720;182;137045;-67
2023/06/12 19:46:35;;;;;;;5.60;2.40;;;;;;;17.50;44.32;99249.27;223781;182;147278;-66
2023/06/12 19:51:39;;;;;;;4.40;2.50;;;;;;;17.42;44.77;99247.28;223674;181;139079;-68
2023/06/12 19:56:42;;;;;;;7.20;2.60;;;;;;;17.37;44.80;99244.16;223758;182;136842;-66
2023/06/12 20:01:45;;;;;;;23.50;17.00;;;;;;;17.34;44.99;99245.65;223649;181;145876;-65
2023/06/12 20:06:48;;;;;;;125.50;86.00;;;;;;;17.29;45.09;99248.11;223696;181;138417;-68
2023/06/12 20:11:52;;;;;;;7.60;3.70;;;;;;;17.28;45.14;99244.22;223703;181;136906;-67
2023/06/12 20:16:55;;;;;;;6.70;2.20;;;;;;;17.22;45.09;99246.48;223652;182;145996;-68
2023/06/12 20:21:59;;;;;;;4.50;2.20;;;;;;;17.14;45.32;99245.08;223746;182;138245;-68
2023/06/12 20:27:04;;;;;;;4.60;2.40;;;;;;;17.05;45.60;99240.84;223680;181;136965;-67
2023/06/12 20:32:08;;;;;;;;;;;;;;;16.95;45.80;99238.23;223716;181;145850;-69
2023/06/12 20:37:11;;;;;;;6.50;3.90;;;;;;;16.86;46.02;99236.67;223766;182;139743;-67
2023/06/12 20:42:15;;;;;;;3.90;2.40;;;;;;;16.77;46.31;99241.92;223670;181;137002;-68
2023/06/12 20:47:19;;;;;;;6.90;2.90;;;;;;;16.67;46.68;99235.78;223751;181;145345;-68
2023/06/12 20:52:22;;;;;;;5.90;2.40;;;;;;;16.57;47.05;99232.13;223693;181;138458;-68
2023/06/12 20:57:25;;;;;;;3.70;2.10;;;;;;;16.49;47.43;99231.00;223726;182;136449;-67
2023/06/12 21:02:29;;;;;;;5.20;2.40;;;;;;;16.41;47.59;99230.44;223714;182;146089;-66
2023/06/12 21:07:33;;;;;;;5.60;2.60;;;;;;;16.34;48.10;99227.38;223738;182;138982;-65
2023/06/12 21:12:48;;;;;;;5.80;2.30;;;;;;;16.28;48.47;99227.20;223701;181;136563;-65
2023/06/12 21:17:51;;;;;;;8.20;2.40;;;;;;;16.16;48.82;99220.98;223695;181;145172;-65
2023/06/12 21:22:55;;;;;;;4.50;2.40;;;;;;;16.06;49.19;99221.50;223661;182;139073;-65
2023/06/12 21:28:01;;;;;;;4.30;2.30;;;;;;;15.97;49.50;99222.60;223724;181;136881;-64
2023/06/12 21:33:06;;;;;;;4.90;2.10;;;;;;;15.87;49.84;99225.39;223659;181;147476;-68
2023/06/12 21:38:11;;;;;;;6.40;2.20;;;;;;;15.76;50.23;99217.25;223676;181;138013;-65
2023/06/12 21:43:14;;;;;;;4.20;2.10;;;;;;;15.70;50.58;99218.02;223734;182;136660;-66
2023/06/12 21:48:21;;;;;;;6.00;2.50;;;;;;;15.61;50.98;99211.70;223600;181;146748;-64
2023/06/12 21:53:25;;;;;;;4.30;2.50;;;;;;;15.52;51.15;99208.46;223678;181;140016;-65
2023/06/12 21:58:30;;;;;;;3.40;2.30;;;;;;;15.41;51.35;99212.21;223746;182;139025;-65
2023/06/12 22:03:34;;;;;;;6.90;2.70;;;;;;;15.29;51.63;99208.48;223814;182;145053;-66
2023/06/12 22:08:37;;;;;;;3.00;2.00;;;;;;;15.20;51.88;99205.32;223692;181;140662;-68
2023/06/12 22:21:14;;;;;;;5.50;2.40;;;;;;;15.01;52.68;99199.95;223659;182;145997;-67
2023/06/12 22:26:19;;;;;;;8.10;2.70;;;;;;;14.91;52.97;99197.16;223713;181;140531;-67
2023/06/12 22:31:23;;;;;;;9.40;2.50;;;;;;;14.84;53.45;99197.13;223695;181;136780;-67
2023/06/12 22:36:27;;;;;;;6.50;3.00;;;;;;;14.78;53.76;99192.77;223745;182;147540;-64
2023/06/12 22:41:31;;;;;;;9.20;2.70;;;;;;;14.74;54.10;99191.18;223653;178;138301;-65
2023/06/12 22:46:35;;;;;;;7.60;2.60;;;;;;;14.69;54.47;99186.01;223753;182;136269;-64
2023/06/12 22:51:38;;;;;;;5.20;3.00;;;;;;;14.65;54.64;99189.38;223774;182;145352;-64
2023/06/12 23:08:59;;;;;;;5.20;2.90;;;;;;;14.46;55.21;99179.84;223742;181;145218;-66
2023/06/12 23:14:03;;;;;;;4.40;2.50;;;;;;;14.39;55.36;99175.97;223678;182;139037;-66
2023/06/12 23:19:10;;;;;;;4.20;2.60;;;;;;;14.39;55.55;99171.66;223590;182;137027;-66
2023/06/12 23:54:48;;;;;;;6.90;2.60;;;;;;;14.04;56.40;99139.50;222042;192;666024;-65
2023/06/12 23:59:52;;;;;;;7.60;2.40;;;;;;;14.00;56.47;99135.51;223436;186;136501;-67
